createdAt,value
2019-02-22T00:03:48.359Z,50.03
2019-02-22T00:08:54.093Z,45.43
2019-02-22T00:14:03.610Z,44.57
2019-02-22T00:19:08.763Z,39.53
2019-02-22T00:24:14.498Z,42.00
2019-02-22T00:29:26.204Z,38.97
2019-02-22T00:34:34.202Z,37.70
2019-02-22T00:39:42.882Z,38.90
2019-02-22T00:44:54.413Z,38.60
2019-02-22T00:50:00.035Z,37.73
2019-02-22T00:55:08.157Z,40.60
2019-02-22T01:00:14.241Z,39.57
2019-02-22T01:05:19.949Z,45.47
2019-02-22T01:10:31.100Z,49.10
2019-02-22T01:15:32.969Z,41.70
2019-02-22T01:20:39.395Z,43.17
2019-02-22T01:25:44.946Z,41.60
2019-02-22T01:30:50.058Z,42.03
2019-02-22T01:35:55.223Z,42.90
2019-02-22T01:41:03.053Z,44.67
2019-02-22T01:46:08.553Z,44.37
2019-02-22T01:51:13.639Z,40.57
2019-02-22T01:56:18.775Z,41.73
2019-02-22T02:01:25.608Z,43.87
2019-02-22T02:06:31.423Z,41.40
2019-02-22T02:11:37.575Z,42.00
2019-02-22T02:16:42.736Z,40.77
2019-02-22T02:21:47.793Z,44.87
2019-02-22T02:26:52.849Z,41.17
2019-02-22T02:31:58.175Z,43.93
2019-02-22T02:37:03.185Z,47.57
2019-02-22T02:42:08.222Z,43.33
2019-02-22T02:47:13.225Z,53.23
2019-02-22T02:52:18.265Z,44.67
2019-02-22T02:57:24.193Z,36.57
2019-02-22T03:02:31.067Z,39.70
2019-02-22T03:07:43.467Z,39.23
2019-02-22T03:12:48.787Z,41.77
2019-02-22T03:17:53.807Z,40.37
2019-02-22T03:22:59.238Z,47.67
2019-02-22T03:28:04.692Z,40.40
2019-02-22T03:33:19.786Z,38.63
2019-02-22T03:38:25.052Z,39.00
2019-02-22T03:43:30.088Z,41.53
2019-02-22T03:48:35.047Z,41.80
2019-02-22T03:54:00.983Z,41.70
2019-02-22T03:59:06.507Z,40.77
2019-02-22T04:04:11.588Z,41.30
2019-02-22T04:09:17.109Z,39.70
2019-02-22T04:14:30.460Z,39.53
2019-02-22T04:19:35.448Z,41.73
2019-02-22T04:24:40.831Z,39.70
2019-02-22T04:29:45.886Z,39.70
2019-02-22T04:34:51.041Z,39.27
2019-02-22T04:39:57.242Z,38.03
2019-02-22T04:45:02.267Z,41.07
2019-02-22T04:50:08.656Z,37.63
2019-02-22T04:55:14.523Z,36.70
2019-02-22T05:00:19.540Z,38.77
2019-02-22T05:05:24.750Z,36.80
2019-02-22T05:10:30.012Z,35.67
2019-02-22T05:15:35.102Z,37.60
2019-02-22T05:20:40.939Z,32.93
2019-02-22T05:25:46.095Z,37.50
2019-02-22T05:30:51.227Z,36.37
2019-02-22T05:35:56.638Z,36.07
2019-02-22T05:41:01.756Z,34.83
2019-02-22T05:46:06.881Z,37.47
2019-02-22T05:51:13.689Z,33.43
2019-02-22T05:56:18.839Z,30.73
2019-02-22T06:01:24.031Z,35.37
2019-02-22T06:06:35.599Z,34.30
2019-02-22T06:11:40.960Z,39.67
2019-02-22T06:16:46.103Z,42.43
2019-02-22T06:21:51.389Z,38.70
2019-02-22T06:26:57.375Z,37.77
2019-02-22T06:32:03.051Z,34.63
2019-02-22T06:37:08.595Z,35.47
2019-02-22T06:42:13.640Z,33.07
2019-02-22T06:47:18.645Z,30.50
2019-02-22T06:52:25.445Z,29.97
2019-02-22T06:57:30.587Z,27.60
2019-02-22T07:02:36.284Z,29.67
2019-02-22T07:07:42.493Z,31.63
2019-02-22T07:12:56.997Z,30.57
2019-02-22T07:18:02.709Z,34.23
2019-02-22T07:23:08.943Z,29.43
2019-02-22T07:28:15.498Z,28.10
2019-02-22T07:33:31.917Z,29.77
2019-02-22T07:38:37.048Z,27.93
2019-02-22T07:43:43.727Z,26.93
2019-02-22T07:48:49.079Z,28.93
2019-02-22T07:53:54.461Z,28.67
2019-02-22T07:59:03.111Z,26.47
2019-02-22T08:04:08.501Z,23.73
2019-02-22T08:09:24.188Z,24.33
2019-02-22T08:14:29.471Z,23.70
2019-02-22T08:19:34.865Z,23.90
2019-02-22T08:24:43.479Z,21.97
2019-02-22T08:29:49.433Z,22.00
2019-02-22T08:34:56.533Z,21.53
2019-02-22T08:40:02.995Z,22.23
2019-02-22T08:45:24.292Z,22.80
2019-02-22T08:50:32.301Z,25.17
2019-02-22T08:55:39.210Z,24.90
2019-02-22T09:00:50.151Z,25.10
2019-02-22T09:06:08.171Z,23.97
2019-02-22T09:11:13.702Z,27.37
2019-02-22T09:16:19.535Z,28.33
2019-02-22T09:21:29.436Z,27.73
2019-02-22T09:26:38.848Z,29.90
2019-02-22T09:31:52.978Z,30.10
2019-02-22T09:36:59.651Z,32.83
2019-02-22T09:42:04.786Z,29.37
2019-02-22T09:47:11.808Z,32.17
2019-02-22T09:52:17.551Z,29.30
2019-02-22T09:57:24.386Z,26.03
2019-02-22T10:02:30.249Z,21.70
2019-02-22T10:07:35.693Z,27.37
2019-02-22T10:12:40.841Z,26.13
2019-02-22T10:17:46.349Z,23.13
2019-02-22T10:22:51.784Z,25.13
2019-02-22T10:28:18.091Z,25.03
2019-02-22T10:33:24.481Z,23.17
2019-02-22T10:38:36.142Z,24.20
2019-02-22T10:43:44.301Z,22.33
2019-02-22T10:48:51.990Z,27.10
2019-02-22T10:53:57.957Z,23.40
2019-02-22T10:59:03.118Z,21.40
2019-02-22T11:04:08.236Z,21.63
2019-02-22T11:09:14.738Z,24.00
2019-02-22T11:14:28.930Z,23.10
2019-02-22T11:19:29.168Z,24.10
2019-02-22T11:24:34.273Z,22.57
2019-02-22T11:29:39.808Z,22.87
2019-02-22T11:34:45.470Z,22.27
2019-02-22T11:39:50.886Z,23.60
2019-02-22T11:44:58.301Z,23.07
2019-02-22T11:50:04.486Z,19.00
2019-02-22T11:55:15.458Z,21.50
2019-02-22T12:00:22.268Z,20.13
2019-02-22T12:05:27.536Z,23.93
2019-02-22T12:10:33.332Z,23.87
2019-02-22T12:15:39.009Z,21.77
2019-02-22T12:20:44.112Z,22.03
2019-02-22T12:25:49.390Z,22.13
2019-02-22T12:30:54.421Z,20.40
2019-02-22T12:36:00.139Z,20.93
2019-02-22T12:41:05.577Z,23.90
2019-02-22T12:46:11.254Z,24.33
2019-02-22T12:51:16.371Z,25.10
2019-02-22T12:56:48.575Z,22.90
2019-02-22T13:01:30.076Z,23.37
2019-02-22T13:06:35.571Z,21.30
2019-02-22T13:11:40.736Z,19.90
2019-02-22T13:16:46.132Z,23.40
2019-02-22T13:21:51.368Z,23.40
2019-02-22T13:26:56.474Z,24.77
2019-02-22T13:32:02.920Z,21.90
2019-02-22T13:37:08.293Z,20.80
2019-02-22T13:42:13.380Z,21.60
2019-02-22T13:47:18.941Z,24.33
2019-02-22T13:52:25.802Z,23.90
2019-02-22T13:57:32.025Z,27.63
2019-02-22T14:02:37.825Z,25.93
2019-02-22T14:07:55.710Z,28.13
2019-02-22T14:13:01.887Z,27.07
2019-02-22T14:18:07.292Z,26.90
2019-02-22T14:23:13.996Z,26.17
2019-02-22T14:28:21.617Z,22.90
2019-02-22T14:33:26.794Z,25.77
2019-02-22T14:38:32.322Z,23.73
2019-02-22T14:43:37.535Z,25.33
2019-02-22T14:48:42.762Z,24.57
2019-02-22T14:53:47.824Z,26.50
2019-02-22T14:58:52.881Z,28.17
2019-02-22T15:03:57.977Z,28.03
2019-02-22T15:09:04.772Z,30.80
2019-02-22T15:14:18.120Z,32.43
2019-02-22T15:19:23.671Z,27.93
2019-02-22T15:24:37.362Z,21.70
2019-02-22T15:29:45.860Z,22.60
2019-02-22T15:34:51.218Z,21.27
2019-02-22T15:39:56.515Z,22.30
2019-02-22T15:45:04.663Z,26.53
2019-02-22T15:50:13.491Z,21.43
2019-02-22T15:55:18.887Z,25.60
2019-02-22T16:00:25.837Z,25.13
2019-02-22T16:05:33.976Z,27.17
2019-02-22T16:10:39.191Z,22.90
2019-02-22T16:15:44.781Z,20.10
2019-02-22T16:20:50.243Z,22.80
2019-02-22T16:25:55.344Z,20.97
2019-02-22T16:31:00.486Z,23.07
2019-02-22T16:36:05.614Z,21.33
2019-02-22T16:41:10.906Z,25.93
2019-02-22T16:46:16.633Z,27.57
2019-02-22T16:51:21.932Z,32.23
2019-02-22T16:56:27.112Z,27.33
2019-02-22T17:01:33.123Z,26.70
2019-02-22T17:06:55.779Z,26.83
2019-02-22T17:12:06.422Z,23.47
2019-02-22T17:17:08.500Z,25.67
2019-02-22T17:22:13.882Z,30.07
2019-02-22T17:27:20.204Z,26.57
2019-02-22T17:32:25.576Z,26.87
2019-02-22T17:37:30.754Z,29.87
2019-02-22T17:42:36.942Z,33.47
2019-02-22T17:47:44.958Z,31.70
2019-02-22T17:52:50.932Z,31.77
2019-02-22T17:57:57.042Z,31.27
2019-02-22T18:03:05.649Z,30.77
2019-02-22T18:08:11.907Z,32.23
2019-02-22T18:13:17.279Z,25.40
2019-02-22T18:18:23.391Z,25.17
2019-02-22T18:23:29.087Z,24.90
2019-02-22T18:28:36.036Z,26.10
2019-02-22T18:33:41.651Z,26.83
2019-02-22T18:38:47.792Z,34.27
2019-02-22T18:43:53.034Z,36.40
2019-02-22T18:48:58.860Z,32.27
2019-02-22T18:54:04.028Z,35.00
2019-02-22T18:59:10.341Z,32.10
2019-02-22T19:04:15.532Z,30.77
2019-02-22T19:09:20.984Z,33.70
2019-02-22T19:14:26.272Z,34.53
2019-02-22T19:19:31.848Z,34.27
2019-02-22T19:24:40.366Z,35.27
2019-02-22T19:29:45.822Z,36.70
2019-02-22T19:34:53.731Z,35.30
2019-02-22T19:39:59.291Z,36.53
2019-02-22T19:45:05.575Z,40.43
2019-02-22T19:50:12.643Z,36.13
2019-02-22T19:55:22.227Z,39.63
2019-02-22T20:00:28.003Z,37.10
2019-02-22T20:05:33.532Z,35.27
2019-02-22T20:10:40.964Z,34.93
2019-02-22T20:15:46.993Z,40.12
2019-02-22T20:20:52.952Z,42.48
2019-02-22T20:26:17.748Z,41.73
2019-02-22T20:31:23.866Z,37.17
2019-02-22T20:36:29.167Z,36.93
2019-02-22T20:41:34.436Z,34.83
2019-02-22T20:46:44.270Z,34.87
2019-02-22T20:51:49.996Z,35.43
2019-02-22T20:57:29.185Z,43.97
2019-02-22T21:02:34.511Z,43.80
2019-02-22T21:07:39.615Z,38.67
2019-02-22T21:12:44.770Z,43.77
2019-02-22T21:17:50.492Z,40.93
2019-02-22T21:22:55.908Z,42.70
2019-02-22T21:28:01.103Z,40.87
2019-02-22T21:33:10.936Z,39.17
2019-02-22T21:38:22.441Z,40.37
2019-02-22T21:43:29.651Z,39.13
2019-02-22T21:48:34.945Z,45.47
2019-02-22T21:53:40.928Z,34.87
2019-02-22T21:58:48.611Z,35.10
2019-02-22T22:03:54.048Z,44.37
2019-02-22T22:08:59.700Z,46.20
2019-02-22T22:14:07.546Z,43.27
2019-02-22T22:19:14.270Z,38.90
2019-02-22T22:24:19.884Z,40.63
2019-02-22T22:29:25.179Z,41.53
2019-02-22T22:34:30.836Z,44.70
2019-02-22T22:39:36.414Z,47.03
2019-02-22T22:44:42.061Z,41.87
2019-02-22T22:49:48.008Z,45.83
2019-02-22T22:54:54.094Z,42.37
2019-02-22T22:59:59.766Z,46.70
2019-02-22T23:05:05.056Z,47.33
2019-02-22T23:10:12.444Z,40.93
2019-02-22T23:15:17.714Z,38.10
2019-02-22T23:20:23.434Z,42.87
2019-02-22T23:25:28.686Z,39.70
2019-02-22T23:30:34.865Z,37.07
2019-02-22T23:35:40.078Z,42.03
2019-02-22T23:40:45.217Z,39.63
2019-02-22T23:45:50.399Z,40.83
2019-02-22T23:51:01.085Z,35.87
2019-02-22T23:56:10.931Z,37.83
